»·PEaware :: N172MY KRDD-KUAO

N172MY :: KRDD-KUAO

FLIGHT INFORMATION

Flight Status: Arrived
Operator: Privately registered:
United States
More flights under this callsign
Pilot: Christopher V. (26992)
Aircraft: Unknown
(DA65)
More flights by this aircraft type
Origin: KRDD Redding Mun
United States
Destination: KUAO Aurora State
United States
More flights between these airports :: More routes between these airports
Route: +UBG
File this flight plan on PilotEdge
Remarks:
Altitude:
(Current/Filed)
12,000ft
Speed:
(Current/Filed)
200kts
Departed: 16-Nov-20 06:33 PM
Arrived: 16-Nov-20 07:19 PM
Distance/Time
Traveled:
285nm/0:46
Distance/Time
To Go:
Arrived

Flight Plot

Page will automatically refresh every two minutes.

Flight plan parsing failed; only flown route is shown


Map Options




Map Legend


Flown Route
Filed Route
Departure Airport
Arrival Airport
Navaid (VOR, NDB)
Fix

Horizontal Profiles

Position Reports

Time Latitude Longitude Heading Altitude Ground
Speed
16-Nov-20 18:31 43.423387 -123.089027 342 12133ft 197kts
16-Nov-20 18:33 43.486283 -123.090314 350 12153ft 195kts
16-Nov-20 18:33 43.531462 -123.088036 351 12115ft 192kts
16-Nov-20 18:35 43.594621 -123.084409 351 12148ft 195kts
16-Nov-20 18:35 43.640091 -123.081789 352 12170ft 201kts
16-Nov-20 18:36 43.695729 -123.078494 351 12122ft 195kts
16-Nov-20 18:37 43.750244 -123.075298 351 12142ft 196kts
16-Nov-20 18:38 43.804767 -123.072094 351 12163ft 196kts
16-Nov-20 18:39 43.858205 -123.068882 350 12167ft 182kts
16-Nov-20 18:40 43.908432 -123.065952 350 12119ft 181kts
16-Nov-20 18:41 43.960781 -123.062848 351 12162ft 193kts
16-Nov-20 18:42 44.015459 -123.059589 351 12151ft 197kts
16-Nov-20 18:43 44.070228 -123.056319 351 12156ft 195kts
16-Nov-20 18:44 44.123934 -123.053090 350 12150ft 184kts
16-Nov-20 18:45 44.174152 -123.050149 350 12155ft 179kts
16-Nov-20 18:46 44.223617 -123.047196 349 12134ft 176kts
16-Nov-20 18:47 44.271813 -123.044285 348 12150ft 173kts
16-Nov-20 18:48 44.320239 -123.041389 349 12144ft 175kts
16-Nov-20 18:49 44.369661 -123.038367 349 12196ft 179kts
16-Nov-20 18:50 44.420100 -123.035365 349 12265ft 185kts
16-Nov-20 18:51 44.472686 -123.032177 349 12259ft 192kts
16-Nov-20 18:52 44.523615 -123.029096 348 12252ft 178kts
16-Nov-20 18:53 44.572729 -123.026128 347 12254ft 175kts
16-Nov-20 18:54 44.622009 -123.023129 348 12257ft 177kts
16-Nov-20 18:55 44.671582 -123.020109 350 12247ft 181kts
16-Nov-20 18:56 44.721464 -123.017080 350 12232ft 178kts
16-Nov-20 18:57 44.770860 -123.014059 349 12240ft 178kts
16-Nov-20 18:58 44.821267 -123.010988 350 12236ft 184kts
16-Nov-20 18:59 44.872005 -123.007932 350 12231ft 180kts
16-Nov-20 19:00 44.921960 -123.004822 349 12238ft 179kts
16-Nov-20 19:01 44.971858 -123.001758 349 12237ft 179kts
16-Nov-20 19:02 45.021707 -122.998657 349 12237ft 179kts
16-Nov-20 19:03 45.071579 -122.995614 349 12242ft 180kts
16-Nov-20 19:04 45.122295 -122.992543 350 12017ft 191kts
16-Nov-20 19:05 45.176775 -122.989119 350 11098ft 196kts
16-Nov-20 19:06 45.231395 -122.985722 350 10084ft 197kts
16-Nov-20 19:07 45.281691 -122.982659 348 9050ft 170kts
16-Nov-20 19:08 45.324098 -122.964266 85 8069ft 169kts
16-Nov-20 19:09 45.336330 -122.903332 74 7149ft 169kts
16-Nov-20 19:10 45.349899 -122.843078 81 5881ft 158kts
16-Nov-20 19:11 45.362853 -122.783992 82 4417ft 147kts
16-Nov-20 19:12 45.361300 -122.742034 190 3389ft 101kts
16-Nov-20 19:13 45.343853 -122.749794 176 2934ft 69kts
16-Nov-20 19:14 45.316362 -122.757870 179 2156ft 91kts
16-Nov-20 19:15 45.291003 -122.762155 185 1208ft 89kts
16-Nov-20 19:16 45.267117 -122.766409 185 549ft 86kts
16-Nov-20 19:17 45.246547 -122.770169 185 200ft 48kts
16-Nov-20 19:18 45.242764 -122.770122 97 199ft 1kts
16-Nov-20 19:19 45.242509 -122.769219 99 200ft 0kts
16-Nov-20 19:20 45.242509 -122.769219 99 200ft 0kts
16-Nov-20 19:21 45.242509 -122.769219 99 200ft 0kts
16-Nov-20 19:22 45.242509 -122.769219 99 200ft 0kts
16-Nov-20 19:23 45.242509 -122.769219 99 200ft 0kts
16-Nov-20 19:24 45.242509 -122.769219 99 200ft 0kts
16-Nov-20 19:25 45.242509 -122.769219 99 200ft 0kts
16-Nov-20 19:26 45.242509 -122.769219 99 200ft 0kts
16-Nov-20 19:27 45.242509 -122.769219 99 200ft 0kts
16-Nov-20 19:28 45.242509 -122.769219 99 200ft 0kts
16-Nov-20 19:29 45.242509 -122.769219 99 200ft 0kts
16-Nov-20 19:30 45.242509 -122.769219 99 200ft 0kts
16-Nov-20 19:31 45.242509 -122.769219 99 200ft 0kts
16-Nov-20 19:32 45.242509 -122.769219 99 200ft 0kts

Navigation Log

Ident Type
Flight plan parsing failed, navigation log unavailable